createdAt,value
2018-03-19T00:02:01.660Z,101853.23
2018-03-19T00:04:30.169Z,101857.56
2018-03-19T00:06:58.676Z,101855.02
2018-03-19T00:09:27.206Z,101859.74
2018-03-19T00:11:55.776Z,101859.70
2018-03-19T00:14:24.383Z,101856.20
2018-03-19T00:16:53.080Z,101854.88
2018-03-19T00:19:21.772Z,101866.30
2018-03-19T00:21:50.229Z,101854.03
2018-03-19T00:24:19.665Z,101855.33
2018-03-19T00:26:48.244Z,101844.91
2018-03-19T00:29:16.724Z,101844.06
2018-03-19T00:31:45.211Z,101841.86
2018-03-19T00:34:13.813Z,101840.19
2018-03-19T00:36:42.490Z,101840.17
2018-03-19T00:39:11.941Z,101839.77
2018-03-19T00:41:40.839Z,101840.15
2018-03-19T00:44:09.418Z,101846.25
2018-03-19T00:46:38.001Z,101846.67
2018-03-19T00:49:06.637Z,101841.45
2018-03-19T00:51:35.320Z,101846.64
2018-03-19T00:54:03.852Z,101840.14
2018-03-19T00:56:32.387Z,101836.22
2018-03-19T00:59:00.825Z,101835.81
2018-03-19T01:01:29.297Z,101834.47
2018-03-19T01:03:57.794Z,101835.02
2018-03-19T01:06:26.225Z,101835.88
2018-03-19T01:08:54.662Z,101838.50
2018-03-19T01:11:23.395Z,101834.06
2018-03-19T01:13:51.869Z,101832.39
2018-03-19T01:16:20.328Z,101836.78
2018-03-19T01:18:48.979Z,101840.72
2018-03-19T01:21:17.504Z,101838.52
2018-03-19T01:23:45.930Z,101834.55
2018-03-19T01:26:15.339Z,101835.90
2018-03-19T01:28:43.834Z,101826.33
2018-03-19T01:31:12.415Z,101830.66
2018-03-19T01:33:41.267Z,101823.66
2018-03-19T01:36:09.786Z,101831.96
2018-03-19T01:38:38.776Z,101826.27
2018-03-19T01:41:08.177Z,101828.00
2018-03-19T01:43:36.898Z,101818.43
2018-03-19T01:46:05.459Z,101819.33
2018-03-19T01:48:34.137Z,101816.66
2018-03-19T01:51:02.620Z,101812.27
2018-03-19T01:53:31.090Z,101810.14
2018-03-19T01:56:05.953Z,101805.75
2018-03-19T01:58:34.517Z,101809.72
2018-03-19T02:01:03.086Z,101804.92
2018-03-19T02:03:31.676Z,101804.00
2018-03-19T02:06:00.122Z,101801.81
2018-03-19T02:08:28.592Z,101797.91
2018-03-19T02:10:57.530Z,101798.28
2018-03-19T02:13:26.011Z,101797.00
2018-03-19T02:15:54.494Z,101795.28
2018-03-19T02:18:23.487Z,101787.03
2018-03-19T02:20:52.006Z,101780.94
2018-03-19T02:23:20.648Z,101790.99
2018-03-19T02:25:49.252Z,101783.55
2018-03-19T02:28:17.750Z,101783.98
2018-03-19T02:30:46.844Z,101781.44
2018-03-19T02:33:15.491Z,101780.52
2018-03-19T02:35:43.939Z,101781.83
2018-03-19T02:38:12.457Z,101781.38
2018-03-19T02:40:41.034Z,101781.34
2018-03-19T02:43:09.465Z,101784.39
2018-03-19T02:45:37.980Z,101779.59
2018-03-19T02:48:06.570Z,101773.89
2018-03-19T02:50:38.243Z,101778.22
2018-03-19T02:53:06.729Z,101776.55
2018-03-19T02:55:35.658Z,101772.59
2018-03-19T02:58:04.204Z,101770.42
2018-03-19T03:00:32.683Z,101769.98
2018-03-19T03:03:01.164Z,101767.37
2018-03-19T03:05:29.639Z,101769.16
2018-03-19T03:07:58.121Z,101766.96
2018-03-19T03:10:27.631Z,101763.09
2018-03-19T03:12:56.173Z,101762.23
2018-03-19T03:15:24.735Z,101760.97
2018-03-19T03:17:53.689Z,101759.20
2018-03-19T03:20:22.181Z,101762.19
2018-03-19T03:22:50.754Z,101761.78
2018-03-19T03:25:19.542Z,101756.14
2018-03-19T03:27:48.171Z,101755.21
2018-03-19T03:30:16.662Z,101751.28
2018-03-19T03:32:45.290Z,101746.10
2018-03-19T03:35:13.755Z,101749.55
2018-03-19T03:37:42.253Z,101748.26
2018-03-19T03:40:10.814Z,101749.59
2018-03-19T03:42:39.269Z,101754.36
2018-03-19T03:45:07.744Z,101746.49
2018-03-19T03:47:36.283Z,101751.28
2018-03-19T03:50:05.390Z,101745.16
2018-03-19T03:52:33.894Z,101746.55
2018-03-19T03:55:02.556Z,101753.95
2018-03-19T03:57:31.134Z,101749.59
2018-03-19T03:59:59.731Z,101753.06
2018-03-19T04:02:29.123Z,101745.25
2018-03-19T04:04:57.639Z,101750.41
2018-03-19T04:07:26.152Z,101747.36
2018-03-19T04:09:55.078Z,101744.37
2018-03-19T04:12:23.589Z,101747.47
2018-03-19T04:14:52.088Z,101749.61
2018-03-19T04:17:20.562Z,101742.67
2018-03-19T04:19:49.051Z,101737.88
2018-03-19T04:22:17.516Z,101744.02
2018-03-19T04:24:46.892Z,101741.77
2018-03-19T04:27:15.444Z,101736.48
2018-03-19T04:29:43.957Z,101740.81
2018-03-19T04:32:12.750Z,101743.00
2018-03-19T04:34:41.394Z,101740.86
2018-03-19T04:37:09.910Z,101734.28
2018-03-19T04:39:38.621Z,101746.08
2018-03-19T04:42:08.119Z,101746.06
2018-03-19T04:44:36.632Z,101736.97
2018-03-19T04:47:05.391Z,101744.84
2018-03-19T04:49:33.890Z,101748.33
2018-03-19T04:52:02.469Z,101747.89
2018-03-19T04:54:31.966Z,101743.11
2018-03-19T04:57:00.540Z,101744.80
2018-03-19T04:59:29.116Z,101747.38
2018-03-19T05:01:57.597Z,101743.91
2018-03-19T05:04:26.073Z,101743.53
2018-03-19T05:06:54.555Z,101743.11
2018-03-19T05:09:23.037Z,101743.92
2018-03-19T05:11:51.564Z,101740.10
2018-03-19T05:14:20.008Z,101740.50
2018-03-19T05:16:48.577Z,101743.98
2018-03-19T05:19:18.084Z,101744.84
2018-03-19T05:21:46.574Z,101750.91
2018-03-19T05:24:15.559Z,101747.83
2018-03-19T05:26:44.035Z,101737.00
2018-03-19T05:29:12.654Z,101743.48
2018-03-19T05:31:41.273Z,101744.42
2018-03-19T05:34:09.826Z,101746.64
2018-03-19T05:36:38.380Z,101757.54
2018-03-19T05:39:07.094Z,101753.62
2018-03-19T05:41:35.958Z,101749.22
2018-03-19T05:44:04.458Z,101752.30
2018-03-19T05:46:33.120Z,101757.55
2018-03-19T05:49:01.618Z,101762.34
2018-03-19T05:51:31.282Z,101757.52
2018-03-19T05:53:59.814Z,101758.42
2018-03-19T05:56:28.299Z,101755.34
2018-03-19T05:58:56.775Z,101756.20
2018-03-19T06:01:25.283Z,101756.61
2018-03-19T06:03:53.771Z,101758.77
2018-03-19T06:06:22.197Z,101756.15
2018-03-19T06:08:52.049Z,101759.20
2018-03-19T06:11:20.534Z,101756.56
2018-03-19T06:13:49.725Z,101757.47
2018-03-19T06:16:18.409Z,101759.64
2018-03-19T06:18:47.004Z,101758.27
2018-03-19T06:21:15.439Z,101754.71
2018-03-19T06:23:44.477Z,101759.91
2018-03-19T06:26:12.927Z,101764.73
2018-03-19T06:28:41.450Z,101757.37
2018-03-19T06:31:09.987Z,101759.08
2018-03-19T06:33:38.562Z,101749.36
2018-03-19T06:36:07.121Z,101758.03
2018-03-19T06:38:36.616Z,101752.23
2018-03-19T06:41:05.207Z,101753.05
2018-03-19T06:43:33.766Z,101755.56
2018-03-19T06:46:03.280Z,101764.66
2018-03-19T06:48:32.076Z,101760.01
2018-03-19T06:51:00.652Z,101765.16
2018-03-19T06:53:31.670Z,101766.73
2018-03-19T06:56:01.219Z,101761.47
2018-03-19T06:58:30.131Z,101760.00
2018-03-19T07:00:59.657Z,101761.27
2018-03-19T07:03:28.130Z,101761.19
2018-03-19T07:05:56.666Z,101764.23
2018-03-19T07:08:26.171Z,101757.35
2018-03-19T07:10:54.663Z,101755.01
2018-03-19T07:13:23.238Z,101759.92
2018-03-19T07:15:52.129Z,101758.58
2018-03-19T07:18:20.626Z,101762.22
2018-03-19T07:20:49.099Z,101764.99
2018-03-19T07:23:17.853Z,101768.90
2018-03-19T07:25:46.321Z,101781.78
2018-03-19T07:28:14.952Z,101773.20
2018-03-19T07:30:44.151Z,101764.64
2018-03-19T07:33:12.722Z,101768.27
2018-03-19T07:35:41.202Z,101773.50
2018-03-19T07:38:10.941Z,101760.69
2018-03-19T07:40:39.926Z,101767.75
2018-03-19T07:43:08.526Z,101764.06
2018-03-19T07:45:37.861Z,101762.47
2018-03-19T07:48:06.576Z,101766.83
2018-03-19T07:50:35.189Z,101770.75
2018-03-19T07:53:03.988Z,101769.87
2018-03-19T07:55:33.503Z,101766.53
2018-03-19T07:58:02.251Z,101761.98
2018-03-19T08:00:32.864Z,101768.64
2018-03-19T08:03:01.504Z,101772.83
2018-03-19T08:05:30.091Z,101768.77
2018-03-19T08:07:58.881Z,101770.55
2018-03-19T08:10:27.772Z,101770.66
2018-03-19T08:12:56.256Z,101767.73
2018-03-19T08:15:24.789Z,101771.95
2018-03-19T08:17:53.261Z,101765.51
2018-03-19T08:20:22.776Z,101765.39
2018-03-19T08:22:51.657Z,101767.88
2018-03-19T08:25:20.133Z,101768.16
2018-03-19T08:27:48.637Z,101770.77
2018-03-19T08:30:17.283Z,101763.41
2018-03-19T08:32:45.746Z,101757.16
2018-03-19T08:35:14.326Z,101759.86
2018-03-19T08:37:42.922Z,101751.86
2018-03-19T08:40:11.533Z,101751.38
2018-03-19T08:42:40.186Z,101752.58
2018-03-19T08:45:08.879Z,101755.27
2018-03-19T08:47:37.459Z,101752.34
2018-03-19T08:50:06.190Z,101750.89
2018-03-19T08:52:34.870Z,101746.98
2018-03-19T08:55:03.657Z,101750.64
2018-03-19T08:57:33.937Z,101747.24
2018-03-19T09:00:03.479Z,101745.16
2018-03-19T09:02:32.113Z,101738.12
2018-03-19T09:05:01.989Z,101728.42
2018-03-19T09:07:30.725Z,101721.41
2018-03-19T09:09:59.385Z,101719.93
2018-03-19T09:12:27.921Z,101719.20
2018-03-19T09:14:56.718Z,101718.00
2018-03-19T09:17:25.234Z,101719.33
2018-03-19T09:19:53.858Z,101713.44
2018-03-19T09:22:22.595Z,101715.08
2018-03-19T09:24:51.074Z,101711.02
2018-03-19T09:27:19.536Z,101709.75
2018-03-19T09:29:48.221Z,101709.22
2018-03-19T09:32:16.812Z,101706.13
2018-03-19T09:34:45.391Z,101705.58
2018-03-19T09:37:15.928Z,101699.73
2018-03-19T09:39:45.043Z,101695.46
2018-03-19T09:42:13.699Z,101706.05
2018-03-19T09:44:43.135Z,101701.56
2018-03-19T09:47:11.924Z,101711.78
2018-03-19T09:49:40.437Z,101709.73
2018-03-19T09:52:09.071Z,101696.55
2018-03-19T09:54:37.670Z,101696.20
2018-03-19T09:57:06.262Z,101694.95
2018-03-19T09:59:35.005Z,101687.03
2018-03-19T10:02:03.567Z,101689.58
2018-03-19T10:04:32.094Z,101689.70
2018-03-19T10:07:01.143Z,101685.43
2018-03-19T10:09:29.692Z,101689.51
2018-03-19T10:11:58.240Z,101679.35
2018-03-19T10:14:26.815Z,101678.30
2018-03-19T10:16:55.269Z,101676.84
2018-03-19T10:19:23.775Z,101680.17
2018-03-19T10:21:52.446Z,101677.44
2018-03-19T10:24:20.951Z,101681.33
2018-03-19T10:26:49.437Z,101691.45
2018-03-19T10:29:18.959Z,101677.61
2018-03-19T10:31:47.520Z,101677.19
2018-03-19T10:34:16.112Z,101665.62
2018-03-19T10:36:44.769Z,101667.45
2018-03-19T10:39:13.390Z,101663.87
2018-03-19T10:41:42.062Z,101663.23
2018-03-19T10:44:10.741Z,101666.85
2018-03-19T10:46:39.434Z,101658.22
2018-03-19T10:49:08.422Z,101655.91
2018-03-19T10:51:38.027Z,101661.83
2018-03-19T10:54:07.365Z,101652.53
2018-03-19T10:56:36.117Z,101645.01
2018-03-19T10:59:05.314Z,101645.25
2018-03-19T11:01:39.833Z,101643.09
2018-03-19T11:04:11.616Z,101641.81
2018-03-19T11:06:45.702Z,101639.29
2018-03-19T11:09:20.002Z,101635.10
2018-03-19T11:11:48.716Z,101627.31
2018-03-19T11:14:17.235Z,101627.05
2018-03-19T11:16:46.177Z,101633.34
2018-03-19T11:19:14.670Z,101626.54
2018-03-19T11:21:43.508Z,101622.05
2018-03-19T11:24:12.349Z,101617.66
2018-03-19T11:26:40.932Z,101615.31
2018-03-19T11:29:09.520Z,101623.93
2018-03-19T11:31:38.202Z,101622.50
2018-03-19T11:34:06.791Z,101617.04
2018-03-19T11:36:35.466Z,101611.40
2018-03-19T11:39:04.263Z,101612.09
2018-03-19T11:41:33.134Z,101608.42
2018-03-19T11:44:02.178Z,101613.59
2018-03-19T11:46:32.383Z,101603.42
2018-03-19T11:49:00.955Z,101599.16
2018-03-19T11:51:29.433Z,101583.23
2018-03-19T11:53:58.029Z,101586.78
2018-03-19T11:56:26.574Z,101581.34
2018-03-19T11:58:55.080Z,101569.12
2018-03-19T12:01:25.188Z,101572.36
2018-03-19T12:03:55.016Z,101568.34
2018-03-19T12:06:23.956Z,101565.58
2018-03-19T12:08:53.468Z,101564.99
2018-03-19T12:11:23.057Z,101559.72
2018-03-19T12:13:51.602Z,101557.55
2018-03-19T12:16:20.157Z,101558.47
2018-03-19T12:18:48.630Z,101559.47
2018-03-19T12:21:17.158Z,101545.00
2018-03-19T12:23:45.653Z,101550.40
2018-03-19T12:26:14.197Z,101543.72
2018-03-19T12:28:42.881Z,101541.65
2018-03-19T12:31:11.895Z,101543.17
2018-03-19T12:33:40.590Z,101537.27
2018-03-19T12:36:09.261Z,101531.00
2018-03-19T12:38:38.053Z,101522.28
2018-03-19T12:41:06.721Z,101511.08
2018-03-19T12:43:35.332Z,101512.27
2018-03-19T12:46:04.755Z,101507.14
2018-03-19T12:48:33.309Z,101502.05
2018-03-19T12:51:02.119Z,101492.73
2018-03-19T12:53:30.766Z,101500.90
2018-03-19T12:55:59.444Z,101492.67
2018-03-19T12:58:27.965Z,101488.16
2018-03-19T13:00:56.521Z,101504.27
2018-03-19T13:03:24.997Z,101485.81
2018-03-19T13:05:53.428Z,101487.34
2018-03-19T13:08:23.095Z,101490.42
2018-03-19T13:10:52.038Z,101484.41
2018-03-19T13:13:20.469Z,101474.32
2018-03-19T13:15:49.161Z,101472.45
2018-03-19T13:18:17.623Z,101467.52
2018-03-19T13:20:46.137Z,101467.44
2018-03-19T13:23:15.002Z,101459.19
2018-03-19T13:25:43.611Z,101456.41
2018-03-19T13:28:12.302Z,101454.55
2018-03-19T13:30:40.993Z,101449.28
2018-03-19T13:33:12.107Z,101445.62
2018-03-19T13:35:40.998Z,101444.83
2018-03-19T13:38:09.790Z,101446.53
2018-03-19T13:40:38.473Z,101438.73
2018-03-19T13:43:07.153Z,101446.55
2018-03-19T13:45:36.667Z,101438.88
2018-03-19T13:50:40.283Z,101427.75
2018-03-19T13:53:11.006Z,101433.95
2018-03-19T13:55:39.593Z,101425.27
2018-03-19T13:58:08.404Z,101425.06
2018-03-19T14:00:37.276Z,101417.93
2018-03-19T14:03:06.076Z,101430.19
2018-03-19T14:05:35.468Z,101424.43
2018-03-19T14:08:04.663Z,101421.45
2018-03-19T14:10:33.247Z,101418.70
2018-03-19T14:13:02.854Z,101414.70
2018-03-19T14:15:31.670Z,101407.89
2018-03-19T14:18:00.123Z,101414.48
2018-03-19T14:20:28.699Z,101405.25
2018-03-19T14:22:57.180Z,101398.77
2018-03-19T14:25:25.671Z,101399.27
2018-03-19T14:27:54.426Z,101391.56
2018-03-19T14:30:22.803Z,101393.25
2018-03-19T14:32:51.749Z,101397.08
2018-03-19T14:35:20.745Z,101391.62
2018-03-19T14:37:50.424Z,101395.71
2018-03-19T14:40:18.912Z,101389.29
2018-03-19T14:42:47.681Z,101378.75
2018-03-19T14:45:16.427Z,101379.46
2018-03-19T14:47:45.513Z,101371.07
2018-03-19T14:50:14.158Z,101371.53
2018-03-19T14:52:42.697Z,101369.83
2018-03-19T14:55:11.457Z,101371.78
2018-03-19T14:57:40.117Z,101361.34
2018-03-19T15:00:08.929Z,101355.38
2018-03-19T15:02:37.745Z,101352.20
2018-03-19T15:05:07.242Z,101350.36
2018-03-19T15:07:37.680Z,101349.84
2018-03-19T15:10:06.310Z,101353.89
2018-03-19T15:12:35.222Z,101343.27
2018-03-19T15:15:04.040Z,101338.89
2018-03-19T15:17:32.627Z,101337.34
2018-03-19T15:20:01.314Z,101333.34
2018-03-19T15:22:29.839Z,101334.50
2018-03-19T15:24:58.346Z,101331.18
2018-03-19T15:27:26.945Z,101327.00
2018-03-19T15:29:55.489Z,101330.11
2018-03-19T15:32:23.924Z,101331.30
2018-03-19T15:34:52.708Z,101319.52
2018-03-19T15:37:21.142Z,101315.22
2018-03-19T15:39:49.608Z,101318.30
2018-03-19T15:42:19.013Z,101321.01
2018-03-19T15:44:47.508Z,101318.89
2018-03-19T15:47:15.945Z,101314.05
2018-03-19T15:49:44.899Z,101308.73
2018-03-19T15:52:13.472Z,101307.42
2018-03-19T15:54:42.002Z,101297.73
2018-03-19T15:57:11.042Z,101297.28
2018-03-19T15:59:39.524Z,101295.30
2018-03-19T16:02:08.098Z,101290.91
2018-03-19T16:04:37.190Z,101280.48
2018-03-19T16:07:05.813Z,101285.72
2018-03-19T16:09:34.494Z,101274.95
2018-03-19T16:12:03.963Z,101282.04
2018-03-19T16:14:32.615Z,101274.72
2018-03-19T16:17:01.145Z,101271.88
2018-03-19T16:19:30.232Z,101271.61
2018-03-19T16:21:58.686Z,101270.75
2018-03-19T16:24:27.190Z,101273.35
2018-03-19T16:26:56.036Z,101269.97
2018-03-19T16:29:24.562Z,101270.96
2018-03-19T16:31:53.042Z,101271.61
2018-03-19T16:34:21.667Z,101274.42
2018-03-19T16:36:50.225Z,101277.04
2018-03-19T16:39:18.788Z,101266.40
2018-03-19T16:41:47.385Z,101275.07
2018-03-19T16:44:15.857Z,101272.52
2018-03-19T16:46:44.488Z,101270.77
2018-03-19T16:49:13.308Z,101276.91
2018-03-19T16:51:42.240Z,101266.06
2018-03-19T16:54:10.897Z,101262.02
2018-03-19T16:59:14.167Z,101252.58
2018-03-19T17:01:43.650Z,101253.34
2018-03-19T17:04:12.343Z,101258.69
2018-03-19T17:06:41.221Z,101263.78
2018-03-19T17:09:10.401Z,101249.99
2018-03-19T17:11:39.858Z,101251.17
2018-03-19T17:14:08.753Z,101243.87
2018-03-19T17:16:37.712Z,101252.66
2018-03-19T17:19:06.514Z,101252.27
2018-03-19T17:21:40.816Z,101257.63
2018-03-19T17:24:10.962Z,101261.19
2018-03-19T17:26:52.555Z,101259.04
2018-03-19T17:29:21.492Z,101260.91
2018-03-19T17:31:50.070Z,101266.12
2018-03-19T17:34:18.623Z,101261.14
2018-03-19T17:36:47.182Z,101251.25
2018-03-19T17:39:15.865Z,101260.45
2018-03-19T17:41:44.512Z,101255.73
2018-03-19T17:44:13.146Z,101257.13
2018-03-19T17:46:41.722Z,101256.00
2018-03-19T17:49:10.470Z,101251.28
2018-03-19T17:51:39.092Z,101247.53
2018-03-19T17:54:07.702Z,101244.59
2018-03-19T17:56:36.389Z,101242.06
2018-03-19T17:59:05.542Z,101238.99
2018-03-19T18:01:34.059Z,101243.21
2018-03-19T18:04:02.896Z,101244.48
2018-03-19T18:06:31.492Z,101245.59
2018-03-19T18:08:59.951Z,101248.95
2018-03-19T18:11:28.886Z,101246.13
2018-03-19T18:13:57.377Z,101242.26
2018-03-19T18:16:25.922Z,101237.27
2018-03-19T18:18:54.558Z,101233.98
2018-03-19T18:21:23.084Z,101225.66
2018-03-19T18:23:51.616Z,101232.73
2018-03-19T18:26:20.533Z,101220.00
2018-03-19T18:28:49.026Z,101222.64
2018-03-19T18:31:17.614Z,101226.98
2018-03-19T18:33:46.778Z,101213.48
2018-03-19T18:36:15.437Z,101216.63
2018-03-19T18:38:44.123Z,101222.41
2018-03-19T18:41:12.980Z,101210.64
2018-03-19T18:43:41.828Z,101206.42
2018-03-19T18:46:10.468Z,101211.79
2018-03-19T18:48:39.257Z,101208.07
2018-03-19T18:51:08.067Z,101202.70
2018-03-19T18:53:37.472Z,101202.70
2018-03-19T18:56:06.278Z,101202.66
2018-03-19T18:58:35.045Z,101201.44
2018-03-19T19:01:03.753Z,101187.09
2018-03-19T19:03:34.421Z,101185.32
2018-03-19T19:06:03.010Z,101186.97
2018-03-19T19:08:31.492Z,101179.87
2018-03-19T19:11:01.065Z,101176.00
2018-03-19T19:13:29.482Z,101173.17
2018-03-19T19:15:58.315Z,101172.16
2018-03-19T19:18:27.871Z,101175.57
2018-03-19T19:20:56.291Z,101169.77
2018-03-19T19:23:25.148Z,101162.66
2018-03-19T19:25:54.070Z,101155.73
2018-03-19T19:28:22.768Z,101152.65
2018-03-19T19:30:51.300Z,101161.47
2018-03-19T19:33:20.958Z,101147.78
2018-03-19T19:35:49.504Z,101148.61
2018-03-19T19:38:17.941Z,101150.34
2018-03-19T19:40:46.520Z,101146.09
2018-03-19T19:43:15.148Z,101147.58
2018-03-19T19:45:44.240Z,101144.36
2018-03-19T19:48:13.106Z,101140.20
2018-03-19T19:50:41.700Z,101144.50
2018-03-19T19:53:11.038Z,101135.73
2018-03-19T19:55:41.364Z,101129.63
2018-03-19T19:58:09.930Z,101132.81
2018-03-19T20:00:38.769Z,101132.44
2018-03-19T20:03:07.963Z,101125.82
2018-03-19T20:05:38.402Z,101125.63
2018-03-19T20:08:07.009Z,101122.91
2018-03-19T20:10:36.890Z,101121.17
2018-03-19T20:13:07.028Z,101121.70
2018-03-19T20:15:36.501Z,101113.46
2018-03-19T20:18:05.297Z,101114.39
2018-03-19T20:20:36.127Z,101113.28
2018-03-19T20:23:05.333Z,101100.17
2018-03-19T20:25:34.142Z,101107.75
2018-03-19T20:28:03.892Z,101104.11
2018-03-19T20:30:34.011Z,101096.97
2018-03-19T20:33:03.003Z,101093.45
2018-03-19T20:35:31.727Z,101094.31
2018-03-19T20:38:00.450Z,101088.77
2018-03-19T20:40:29.862Z,101089.59
2018-03-19T20:42:58.467Z,101089.04
2018-03-19T20:45:27.194Z,101080.95
2018-03-19T20:47:56.632Z,101088.28
2018-03-19T20:50:25.069Z,101078.55
2018-03-19T20:52:53.593Z,101072.34
2018-03-19T20:55:22.734Z,101074.39
2018-03-19T20:57:51.183Z,101072.72
2018-03-19T21:00:20.267Z,101073.87
2018-03-19T21:02:49.030Z,101068.95
2018-03-19T21:05:17.810Z,101062.77
2018-03-19T21:07:46.925Z,101051.90
2018-03-19T21:10:15.619Z,101052.81
2018-03-19T21:12:44.144Z,101046.87
2018-03-19T21:15:13.063Z,101046.30
2018-03-19T21:17:42.757Z,101039.34
2018-03-19T21:20:11.428Z,101043.05
2018-03-19T21:22:41.180Z,101034.69
2018-03-19T21:25:11.350Z,101024.41
2018-03-19T21:27:40.836Z,101028.45
2018-03-19T21:30:09.834Z,101023.60
2018-03-19T21:32:38.561Z,101014.00
2018-03-19T21:35:07.742Z,101005.61
2018-03-19T21:37:36.280Z,101003.47
2018-03-19T21:40:05.048Z,101005.48
2018-03-19T21:42:34.554Z,101007.20
2018-03-19T21:45:03.309Z,101004.08
2018-03-19T21:47:31.898Z,100995.77
2018-03-19T21:50:00.369Z,100989.66
2018-03-19T21:52:29.690Z,100990.47
2018-03-19T21:54:58.332Z,100995.97
2018-03-19T21:57:27.008Z,100982.33
2018-03-19T21:59:55.616Z,100986.11
2018-03-19T22:02:24.754Z,100984.05
2018-03-19T22:04:53.283Z,100991.91
2018-03-19T22:07:24.034Z,100983.64
2018-03-19T22:09:52.834Z,100978.03
2018-03-19T22:12:21.381Z,100971.34
2018-03-19T22:14:50.084Z,100960.66
2018-03-19T22:17:18.646Z,100968.45
2018-03-19T22:19:47.138Z,100963.83
2018-03-19T22:22:15.733Z,100958.13
2018-03-19T22:24:45.267Z,100966.69
2018-03-19T22:27:14.341Z,100960.69
2018-03-19T22:29:42.952Z,100967.20
2018-03-19T22:32:11.940Z,100960.30
2018-03-19T22:34:40.596Z,100956.62
2018-03-19T22:37:09.112Z,100949.91
2018-03-19T22:39:38.005Z,100955.95
2018-03-19T22:42:07.777Z,100945.23
2018-03-19T22:44:36.676Z,100939.03
2018-03-19T22:47:05.800Z,100941.58
2018-03-19T22:49:34.359Z,100938.33
2018-03-19T22:52:03.139Z,100939.95
2018-03-19T22:54:32.435Z,100936.69
2018-03-19T22:57:01.064Z,100933.66
2018-03-19T22:59:29.493Z,100923.92
2018-03-19T23:01:58.121Z,100922.60
2018-03-19T23:04:38.291Z,100921.64
2018-03-19T23:07:07.689Z,100912.24
2018-03-19T23:09:36.591Z,100899.44
2018-03-19T23:12:07.685Z,100893.44
2018-03-19T23:14:37.436Z,100893.70
2018-03-19T23:17:06.214Z,100880.77
2018-03-19T23:19:34.973Z,100877.59
2018-03-19T23:22:04.267Z,100868.68
2018-03-19T23:24:32.755Z,100866.67
2018-03-19T23:27:01.236Z,100863.50
2018-03-19T23:29:29.882Z,100866.77
2018-03-19T23:31:58.350Z,100867.02
2018-03-19T23:34:26.845Z,100870.45
2018-03-19T23:36:56.993Z,100863.75
2018-03-19T23:39:26.235Z,100866.81
2018-03-19T23:41:54.657Z,100864.90
2018-03-19T23:44:23.571Z,100864.41
2018-03-19T23:46:52.147Z,100858.23
2018-03-19T23:49:20.779Z,100843.27
2018-03-19T23:51:49.418Z,100840.95
2018-03-19T23:54:29.939Z,100845.34
2018-03-19T23:56:58.525Z,100844.70
2018-03-19T23:59:35.174Z,100841.56
